createdAt,value
2019-05-05T00:02:21.240Z,98473.14
2019-05-05T00:04:56.417Z,98475.84
2019-05-05T00:07:28.835Z,98477.50
2019-05-05T00:09:57.651Z,98472.08
2019-05-05T00:13:00.426Z,98476.10
2019-05-05T00:15:55.167Z,98473.64
2019-05-05T00:18:26.315Z,98471.75
2019-05-05T00:20:55.265Z,98466.33
2019-05-05T00:23:25.107Z,98471.23
2019-05-05T00:25:55.290Z,98473.14
2019-05-05T00:28:24.857Z,98472.06
2019-05-05T00:30:55.352Z,98467.19
2019-05-05T00:33:25.036Z,98468.28
2019-05-05T00:35:54.488Z,98471.52
2019-05-05T00:38:24.908Z,98477.98
2019-05-05T00:40:55.016Z,98477.70
2019-05-05T00:43:25.244Z,98478.51
2019-05-05T00:45:56.970Z,98480.37
2019-05-05T00:48:31.464Z,98488.78
2019-05-05T00:51:00.488Z,98487.16
2019-05-05T00:53:29.157Z,98492.59
2019-05-05T00:55:57.838Z,98494.75
2019-05-05T00:58:28.134Z,98493.14
2019-05-05T01:01:15.883Z,98493.88
2019-05-05T01:03:44.572Z,98493.09
2019-05-05T01:06:20.413Z,98495.80
2019-05-05T01:08:49.089Z,98493.64
2019-05-05T01:11:18.000Z,98493.09
2019-05-05T01:13:46.668Z,98495.50
2019-05-05T01:16:15.947Z,98492.81
2019-05-05T01:18:45.207Z,98499.05
2019-05-05T01:21:15.059Z,98495.98
2019-05-05T01:23:45.523Z,98494.33
2019-05-05T01:26:14.444Z,98496.00
2019-05-05T01:28:44.681Z,98495.94
2019-05-05T01:31:16.758Z,98488.88
2019-05-05T01:34:06.508Z,98494.60
2019-05-05T01:36:35.213Z,98492.15
2019-05-05T01:39:25.226Z,98491.43
2019-05-05T01:41:57.398Z,98497.30
2019-05-05T01:44:26.392Z,98502.39
2019-05-05T01:46:55.229Z,98503.18
2019-05-05T01:49:25.258Z,98502.67
2019-05-05T01:51:55.297Z,98502.65
2019-05-05T01:54:24.966Z,98510.75
2019-05-05T01:56:55.389Z,98509.45
2019-05-05T01:59:26.131Z,98513.02
2019-05-05T02:01:55.262Z,98516.45
2019-05-05T02:04:25.015Z,98515.66
2019-05-05T02:06:54.926Z,98516.70
2019-05-05T02:09:25.003Z,98513.48
2019-05-05T02:11:56.166Z,98521.04
2019-05-05T02:14:25.308Z,98522.36
2019-05-05T02:16:54.914Z,98512.91
2019-05-05T02:19:24.953Z,98516.95
2019-05-05T02:21:54.882Z,98514.00
2019-05-05T02:24:25.124Z,98514.00
2019-05-05T02:26:54.720Z,98513.98
2019-05-05T02:29:45.883Z,98513.20
2019-05-05T02:32:36.836Z,98514.00
2019-05-05T02:35:09.230Z,98519.67
2019-05-05T02:37:40.579Z,98521.77
2019-05-05T02:40:10.242Z,98516.41
2019-05-05T02:42:39.377Z,98517.19
2019-05-05T02:45:15.340Z,98522.27
2019-05-05T02:48:01.329Z,98523.88
2019-05-05T02:50:48.335Z,98523.92
2019-05-05T02:53:05.358Z,98523.44
2019-05-05T02:55:35.200Z,98523.34
2019-05-05T02:58:04.277Z,98527.12
2019-05-05T03:00:50.695Z,98526.91
2019-05-05T03:03:19.711Z,98527.68
2019-05-05T03:05:48.873Z,98529.55
2019-05-05T03:08:18.229Z,98534.69
2019-05-05T03:10:47.036Z,98531.39
2019-05-05T03:13:17.101Z,98529.81
2019-05-05T03:15:54.797Z,98528.44
2019-05-05T03:18:24.728Z,98527.89
2019-05-05T03:21:02.407Z,98528.98
2019-05-05T03:23:25.014Z,98527.59
2019-05-05T03:25:54.605Z,98535.36
2019-05-05T03:28:26.638Z,98534.02
2019-05-05T03:30:56.214Z,98538.59
2019-05-05T03:33:25.607Z,98544.98
2019-05-05T03:35:55.784Z,98548.78
2019-05-05T03:38:24.842Z,98548.06
2019-05-05T03:40:55.844Z,98544.48
2019-05-05T03:43:28.701Z,98546.67
2019-05-05T03:46:00.586Z,98541.73
2019-05-05T03:48:29.325Z,98541.31
2019-05-05T03:50:58.474Z,98545.97
2019-05-05T03:53:27.773Z,98542.77
2019-05-05T03:55:57.033Z,98550.86
2019-05-05T03:58:26.574Z,98544.95
2019-05-05T04:02:00.387Z,98553.06
2019-05-05T04:04:33.449Z,98555.03
2019-05-05T04:07:04.434Z,98561.30
2019-05-05T04:09:34.561Z,98571.60
2019-05-05T04:12:04.483Z,98558.31
2019-05-05T04:14:34.899Z,98566.63
2019-05-05T04:17:21.752Z,98564.98
2019-05-05T04:19:54.189Z,98570.63
2019-05-05T04:22:23.815Z,98568.94
2019-05-05T04:24:54.151Z,98575.44
2019-05-05T04:27:23.979Z,98578.14
2019-05-05T04:29:54.483Z,98577.66
2019-05-05T04:32:24.405Z,98584.42
2019-05-05T04:34:54.329Z,98587.69
2019-05-05T04:37:23.967Z,98585.91
2019-05-05T04:39:53.700Z,98586.05
2019-05-05T04:42:24.083Z,98584.44
2019-05-05T04:44:53.802Z,98589.88
2019-05-05T04:47:29.605Z,98596.59
2019-05-05T04:50:10.327Z,98603.42
2019-05-05T04:52:39.282Z,98606.11
2019-05-05T04:55:08.424Z,98601.97
2019-05-05T04:57:37.108Z,98603.61
2019-05-05T05:00:05.989Z,98602.16
2019-05-05T05:02:49.159Z,98606.80
2019-05-05T05:05:24.427Z,98608.23
2019-05-05T05:07:54.330Z,98610.09
2019-05-05T05:10:24.166Z,98614.67
2019-05-05T05:12:54.021Z,98613.92
2019-05-05T05:15:23.884Z,98620.89
2019-05-05T05:17:59.197Z,98620.12
2019-05-05T05:20:27.917Z,98623.37
2019-05-05T05:22:56.876Z,98627.39
2019-05-05T05:25:25.539Z,98631.22
2019-05-05T05:27:54.227Z,98641.02
2019-05-05T05:30:24.286Z,98643.19
2019-05-05T05:32:53.873Z,98646.77
2019-05-05T05:35:24.365Z,98651.08
2019-05-05T05:37:55.923Z,98650.63
2019-05-05T05:40:30.255Z,98653.88
2019-05-05T05:43:00.555Z,98659.54
2019-05-05T05:45:43.674Z,98663.59
2019-05-05T05:48:20.552Z,98666.06
2019-05-05T05:50:58.040Z,98674.27
2019-05-05T05:53:27.260Z,98671.31
2019-05-05T05:55:55.930Z,98682.91
2019-05-05T05:58:24.691Z,98679.68
2019-05-05T06:00:54.577Z,98682.27
2019-05-05T06:03:24.538Z,98684.71
2019-05-05T06:05:54.023Z,98683.56
2019-05-05T06:08:24.347Z,98696.03
2019-05-05T06:10:54.677Z,98689.28
2019-05-05T06:13:24.189Z,98694.61
2019-05-05T06:15:53.649Z,98690.61
2019-05-05T06:18:24.159Z,98687.84
2019-05-05T06:20:53.717Z,98690.34
2019-05-05T06:23:24.040Z,98697.68
2019-05-05T06:25:55.118Z,98698.84
2019-05-05T06:28:23.812Z,98703.97
2019-05-05T06:30:54.482Z,98705.03
2019-05-05T06:33:24.183Z,98706.08
2019-05-05T06:35:53.640Z,98710.36
2019-05-05T06:38:24.116Z,98713.21
2019-05-05T06:41:27.651Z,98708.74
2019-05-05T06:44:05.979Z,98713.81
2019-05-05T06:46:53.866Z,98713.87
2019-05-05T06:49:24.699Z,98725.03
2019-05-05T06:51:54.707Z,98723.25
2019-05-05T06:54:24.154Z,98730.06
2019-05-05T06:56:53.934Z,98727.06
2019-05-05T06:59:24.308Z,98721.95
2019-05-05T07:01:53.675Z,98730.69
2019-05-05T07:04:24.585Z,98735.03
2019-05-05T07:06:56.292Z,98735.25
2019-05-05T07:09:24.489Z,98732.34
2019-05-05T07:11:54.138Z,98739.95
2019-05-05T07:14:23.768Z,98733.19
2019-05-05T07:16:54.472Z,98734.25
2019-05-05T07:19:23.908Z,98735.09
2019-05-05T07:21:53.845Z,98742.67
2019-05-05T07:24:23.854Z,98741.59
2019-05-05T07:26:54.147Z,98747.30
2019-05-05T07:29:23.883Z,98742.94
2019-05-05T07:31:54.533Z,98750.03
2019-05-05T07:34:24.542Z,98748.69
2019-05-05T07:36:54.859Z,98753.05
2019-05-05T07:39:23.918Z,98750.04
2019-05-05T07:41:54.172Z,98753.86
2019-05-05T07:44:29.069Z,98751.97
2019-05-05T07:46:54.506Z,98746.55
2019-05-05T07:49:24.339Z,98753.04
2019-05-05T07:51:54.675Z,98747.33
2019-05-05T07:54:23.959Z,98748.44
2019-05-05T07:56:53.871Z,98748.42
2019-05-05T07:59:23.780Z,98743.81
2019-05-05T08:01:54.688Z,98744.63
2019-05-05T08:04:24.248Z,98743.47
2019-05-05T08:06:53.894Z,98741.58
2019-05-05T08:09:24.800Z,98746.45
2019-05-05T08:11:54.229Z,98737.50
2019-05-05T08:14:24.564Z,98741.53
2019-05-05T08:17:04.175Z,98739.10
2019-05-05T08:19:37.131Z,98740.94
2019-05-05T08:22:05.876Z,98742.67
2019-05-05T08:25:05.942Z,98737.20
2019-05-05T08:27:44.678Z,98738.29
2019-05-05T08:30:24.318Z,98737.72
2019-05-05T08:32:54.477Z,98732.23
2019-05-05T08:35:23.864Z,98727.22
2019-05-05T08:37:54.198Z,98729.91
2019-05-05T08:40:23.963Z,98735.58
2019-05-05T08:42:53.931Z,98737.47
2019-05-05T08:45:26.185Z,98732.88
2019-05-05T08:47:54.179Z,98744.00
2019-05-05T08:50:26.782Z,98740.08
2019-05-05T08:52:53.770Z,98750.29
2019-05-05T08:55:24.862Z,98743.58
2019-05-05T08:57:54.009Z,98739.91
2019-05-05T09:00:24.491Z,98748.78
2019-05-05T09:02:54.394Z,98751.16
2019-05-05T09:05:24.986Z,98744.84
2019-05-05T09:07:54.795Z,98754.70
2019-05-05T09:10:23.781Z,98749.88
2019-05-05T09:12:54.929Z,98756.44
2019-05-05T09:15:24.340Z,98754.45
2019-05-05T09:17:54.511Z,98752.17
2019-05-05T09:20:24.236Z,98751.73
2019-05-05T09:22:53.649Z,98755.72
2019-05-05T09:25:41.736Z,98759.08
2019-05-05T09:28:23.882Z,98751.87
2019-05-05T09:30:53.631Z,98751.31
2019-05-05T09:33:24.606Z,98758.94
2019-05-05T09:35:54.167Z,98754.17
2019-05-05T09:38:23.893Z,98754.80
2019-05-05T09:40:54.401Z,98748.36
2019-05-05T09:43:24.074Z,98756.55
2019-05-05T09:45:54.468Z,98759.20
2019-05-05T09:48:24.315Z,98750.36
2019-05-05T09:50:54.052Z,98747.30
2019-05-05T09:53:24.095Z,98739.09
2019-05-05T09:55:54.732Z,98746.57
2019-05-05T09:58:24.320Z,98747.28
2019-05-05T10:00:54.681Z,98766.41
2019-05-05T10:03:23.480Z,98770.30
2019-05-05T10:05:54.065Z,98776.30
2019-05-05T10:08:23.649Z,98786.72
2019-05-05T10:10:54.659Z,98781.64
2019-05-05T10:13:23.140Z,98784.67
2019-05-05T10:15:52.063Z,98784.09
2019-05-05T10:18:20.750Z,98784.95
2019-05-05T10:20:49.426Z,98791.55
2019-05-05T10:23:18.397Z,98797.44
2019-05-05T10:25:49.250Z,98792.27
2019-05-05T10:28:17.958Z,98792.33
2019-05-05T10:30:47.052Z,98793.30
2019-05-05T10:33:15.873Z,98785.52
2019-05-05T10:35:44.658Z,98790.69
2019-05-05T10:38:14.300Z,98788.29
2019-05-05T10:40:44.614Z,98798.80
2019-05-05T10:43:14.824Z,98792.41
2019-05-05T10:45:44.147Z,98786.05
2019-05-05T10:48:14.355Z,98790.61
2019-05-05T10:50:44.445Z,98792.63
2019-05-05T10:53:13.824Z,98801.11
2019-05-05T10:55:44.855Z,98799.63
2019-05-05T10:58:13.771Z,98785.03
2019-05-05T11:00:49.356Z,98784.56
2019-05-05T11:03:18.141Z,98775.56
2019-05-05T11:05:47.057Z,98767.31
2019-05-05T11:08:16.970Z,98762.87
2019-05-05T11:10:46.081Z,98771.66
2019-05-05T11:13:14.767Z,98761.85
2019-05-05T11:15:44.315Z,98774.48
2019-05-05T11:18:14.829Z,98764.59
2019-05-05T11:20:44.669Z,98765.86
2019-05-05T11:23:14.955Z,98762.29
2019-05-05T11:25:44.452Z,98764.50
2019-05-05T11:28:13.341Z,98759.29
2019-05-05T11:30:43.655Z,98764.43
2019-05-05T11:33:30.660Z,98772.91
2019-05-05T11:36:06.796Z,98770.21
2019-05-05T11:38:35.837Z,98764.94
2019-05-05T11:41:05.036Z,98764.19
2019-05-05T11:43:34.043Z,98768.00
2019-05-05T11:46:02.809Z,98768.92
2019-05-05T11:48:34.481Z,98772.28
2019-05-05T11:51:04.472Z,98774.11
2019-05-05T11:53:34.091Z,98766.81
2019-05-05T11:56:05.028Z,98760.63
2019-05-05T11:58:34.310Z,98749.57
2019-05-05T12:01:03.874Z,98760.89
2019-05-05T12:03:34.045Z,98760.89
2019-05-05T12:06:03.971Z,98773.63
2019-05-05T12:08:34.494Z,98771.16
2019-05-05T12:11:05.328Z,98771.60
2019-05-05T12:13:34.151Z,98764.50
2019-05-05T12:16:07.781Z,98762.02
2019-05-05T12:18:36.575Z,98765.36
2019-05-05T12:21:05.944Z,98775.61
2019-05-05T12:23:34.683Z,98774.16
2019-05-05T12:26:26.413Z,98775.17
2019-05-05T12:28:57.754Z,98772.34
2019-05-05T12:31:27.986Z,98773.09
2019-05-05T12:33:56.693Z,98772.89
2019-05-05T12:36:25.402Z,98771.97
2019-05-05T12:38:54.701Z,98769.23
2019-05-05T12:41:24.117Z,98760.88
2019-05-05T12:43:54.884Z,98760.88
2019-05-05T12:46:48.886Z,98770.95
2019-05-05T12:49:17.609Z,98766.89
2019-05-05T12:51:46.365Z,98760.84
2019-05-05T12:54:15.296Z,98762.82
2019-05-05T12:56:44.678Z,98763.20
2019-05-05T12:59:19.983Z,98770.12
2019-05-05T13:01:48.633Z,98773.71
2019-05-05T13:04:17.968Z,98760.27
2019-05-05T13:06:46.942Z,98763.05
2019-05-05T13:09:17.753Z,98763.05
2019-05-05T13:11:46.505Z,98773.23
2019-05-05T13:14:15.555Z,98773.50
2019-05-05T13:16:52.784Z,98777.73
2019-05-05T13:19:27.170Z,98782.97
2019-05-05T13:22:19.645Z,98782.20
2019-05-05T13:25:00.106Z,98782.08
2019-05-05T13:27:34.290Z,98787.77
2019-05-05T13:30:04.276Z,98791.60
2019-05-05T13:32:33.546Z,98795.16
2019-05-05T13:35:04.075Z,98792.20
2019-05-05T13:37:33.757Z,98789.60
2019-05-05T13:40:04.442Z,98792.48
2019-05-05T13:42:33.176Z,98799.63
2019-05-05T13:45:16.075Z,98807.95
2019-05-05T13:47:44.831Z,98810.83
2019-05-05T13:50:18.157Z,98804.72
2019-05-05T13:52:47.357Z,98803.89
2019-05-05T13:55:16.403Z,98801.73
2019-05-05T13:57:45.119Z,98804.50
2019-05-05T14:00:16.660Z,98810.55
2019-05-05T14:02:45.396Z,98806.16
2019-05-05T14:05:14.239Z,98807.43
2019-05-05T14:07:43.760Z,98806.91
2019-05-05T14:10:14.416Z,98795.61
2019-05-05T14:12:45.440Z,98794.91
2019-05-05T14:15:37.283Z,98783.59
2019-05-05T14:18:06.068Z,98788.09
2019-05-05T14:20:35.761Z,98784.04
2019-05-05T14:23:04.786Z,98776.84
2019-05-05T14:25:33.493Z,98783.66
2019-05-05T14:28:03.749Z,98783.66
2019-05-05T14:30:54.043Z,98775.44
2019-05-05T14:33:26.137Z,98775.48
2019-05-05T14:36:01.106Z,98772.02
2019-05-05T14:38:39.102Z,98773.95
2019-05-05T14:41:08.261Z,98767.67
2019-05-05T14:43:39.565Z,98771.36
2019-05-05T14:46:08.548Z,98778.27
2019-05-05T14:48:37.324Z,98773.42
2019-05-05T14:51:07.325Z,98783.36
2019-05-05T14:53:36.298Z,98784.97
2019-05-05T14:56:04.982Z,98778.92
2019-05-05T14:58:33.975Z,98772.64
2019-05-05T15:01:05.104Z,98781.08
2019-05-05T15:03:33.799Z,98765.14
2019-05-05T15:06:09.902Z,98778.96
2019-05-05T15:08:44.773Z,98787.99
2019-05-05T15:11:21.253Z,98795.58
2019-05-05T15:13:49.909Z,98795.58
2019-05-05T15:16:18.933Z,98777.73
2019-05-05T15:18:47.605Z,98784.84
2019-05-05T15:21:16.610Z,98782.13
2019-05-05T15:23:45.393Z,98784.11
2019-05-05T15:26:14.040Z,98782.73
2019-05-05T15:28:44.052Z,98775.07
2019-05-05T15:31:13.117Z,98772.42
2019-05-05T15:33:44.012Z,98771.77
2019-05-05T15:36:13.838Z,98766.64
2019-05-05T15:38:43.788Z,98772.09
2019-05-05T15:41:14.545Z,98769.88
2019-05-05T15:43:44.151Z,98765.45
2019-05-05T15:46:12.867Z,98757.03
2019-05-05T15:48:43.811Z,98772.11
2019-05-05T15:51:14.379Z,98762.30
2019-05-05T15:53:42.768Z,98758.59
2019-05-05T15:56:11.541Z,98761.94
2019-05-05T15:58:40.222Z,98765.98
2019-05-05T16:01:09.199Z,98760.84
2019-05-05T16:03:37.925Z,98768.16
2019-05-05T16:06:06.675Z,98770.55
2019-05-05T16:08:36.516Z,98766.80
2019-05-05T16:11:05.321Z,98765.13
2019-05-05T16:13:35.373Z,98763.44
2019-05-05T16:16:38.529Z,98762.75
2019-05-05T16:19:29.769Z,98766.00
2019-05-05T16:22:14.558Z,98775.20
2019-05-05T16:24:44.608Z,98776.28
2019-05-05T16:27:21.797Z,98778.00
2019-05-05T16:29:44.284Z,98776.08
2019-05-05T16:32:21.686Z,98780.98
2019-05-05T16:34:43.356Z,98780.94
2019-05-05T16:37:14.325Z,98773.97
2019-05-05T16:39:43.961Z,98784.78
2019-05-05T16:42:13.595Z,98778.86
2019-05-05T16:44:43.450Z,98787.08
2019-05-05T16:47:13.582Z,98781.95
2019-05-05T16:49:44.513Z,98767.17
2019-05-05T16:52:20.142Z,98774.21
2019-05-05T16:55:14.297Z,98774.21
2019-05-05T16:57:43.711Z,98781.77
2019-05-05T17:00:16.255Z,98781.77
2019-05-05T17:02:45.191Z,98787.13
2019-05-05T17:05:14.443Z,98787.13
2019-05-05T17:07:43.218Z,98792.05
2019-05-05T17:10:13.838Z,98791.34
2019-05-05T17:12:44.280Z,98789.37
2019-05-05T17:15:35.955Z,98787.89
2019-05-05T17:18:35.972Z,98783.44
2019-05-05T17:21:14.242Z,98792.52
2019-05-05T17:23:43.438Z,98790.38
2019-05-05T17:26:14.137Z,98791.56
2019-05-05T17:28:44.341Z,98792.89
2019-05-05T17:31:13.436Z,98795.53
2019-05-05T17:33:44.067Z,98797.25
2019-05-05T17:36:13.986Z,98799.34
2019-05-05T17:38:43.740Z,98798.84
2019-05-05T17:41:30.169Z,98799.44
2019-05-05T17:44:14.110Z,98800.39
2019-05-05T17:46:55.974Z,98800.36
2019-05-05T17:49:54.211Z,98801.62
2019-05-05T17:52:44.992Z,98806.06
2019-05-05T17:55:27.662Z,98807.62
2019-05-05T17:58:01.694Z,98805.25
2019-05-05T18:00:34.108Z,98805.83
2019-05-05T18:03:04.375Z,98803.83
2019-05-05T18:05:50.483Z,98804.30
2019-05-05T18:08:36.842Z,98805.98
2019-05-05T18:11:09.459Z,98806.60
2019-05-05T18:13:43.442Z,98808.81
2019-05-05T18:16:14.040Z,98809.29
2019-05-05T18:18:44.404Z,98812.05
2019-05-05T18:21:14.213Z,98813.69
2019-05-05T18:23:43.832Z,98818.33
2019-05-05T18:26:13.659Z,98816.69
2019-05-05T18:28:44.757Z,98814.75
2019-05-05T18:31:14.208Z,98814.23
2019-05-05T18:33:43.295Z,98818.70
2019-05-05T18:36:14.027Z,98814.60
2019-05-05T18:38:44.503Z,98819.00
2019-05-05T18:41:20.419Z,98815.88
2019-05-05T18:44:05.029Z,98820.52
2019-05-05T18:46:33.975Z,98817.82
2019-05-05T18:49:04.385Z,98829.14
2019-05-05T18:51:34.729Z,98833.34
2019-05-05T18:54:04.265Z,98831.04
2019-05-05T18:56:34.786Z,98842.13
2019-05-05T18:59:06.557Z,98837.82
2019-05-05T19:01:41.602Z,98839.00
2019-05-05T19:04:28.065Z,98841.53
2019-05-05T19:07:23.844Z,98840.14
2019-05-05T19:09:54.948Z,98844.63
2019-05-05T19:12:24.352Z,98841.95
2019-05-05T19:14:54.992Z,98846.59
2019-05-05T19:17:23.899Z,98848.01
2019-05-05T19:19:55.843Z,98848.05
2019-05-05T19:22:24.578Z,98849.14
2019-05-05T19:24:54.857Z,98849.17
2019-05-05T19:27:24.125Z,98856.09
2019-05-05T19:29:53.621Z,98857.98
2019-05-05T19:32:22.909Z,98861.27
2019-05-05T19:34:51.609Z,98860.83
2019-05-05T19:37:20.551Z,98864.34
2019-05-05T19:39:49.579Z,98867.63
2019-05-05T19:42:18.550Z,98871.45
2019-05-05T19:44:47.219Z,98878.30
2019-05-05T19:47:20.456Z,98881.09
2019-05-05T19:49:55.582Z,98876.20
2019-05-05T19:52:24.348Z,98878.17
2019-05-05T19:54:54.684Z,98882.27
2019-05-05T19:57:23.790Z,98848.14
2019-05-05T19:59:54.341Z,98880.74
2019-05-05T20:02:23.658Z,98888.38
2019-05-05T20:04:53.676Z,98880.45
2019-05-05T20:07:24.663Z,98876.34
2019-05-05T20:09:54.350Z,98881.27
2019-05-05T20:12:23.543Z,98882.69
2019-05-05T20:14:54.249Z,98878.11
2019-05-05T20:17:30.854Z,98888.22
2019-05-05T20:19:59.536Z,98886.05
2019-05-05T20:22:28.224Z,98887.72
2019-05-05T20:24:56.954Z,98886.93
2019-05-05T20:27:26.119Z,98896.95
2019-05-05T20:29:54.817Z,98889.60
2019-05-05T20:32:42.604Z,98896.13
2019-05-05T20:35:24.786Z,98893.16
2019-05-05T20:37:57.902Z,98893.49
2019-05-05T20:40:29.915Z,98895.11
2019-05-05T20:42:58.035Z,98891.07
2019-05-05T20:45:29.335Z,98899.25
2019-05-05T20:47:58.272Z,98894.09
2019-05-05T20:50:27.338Z,98897.63
2019-05-05T20:52:56.366Z,98896.53
2019-05-05T20:55:25.928Z,98894.94
2019-05-05T20:57:54.777Z,98898.45
2019-05-05T21:00:24.739Z,98892.73
2019-05-05T21:02:53.939Z,98900.06
2019-05-05T21:05:24.135Z,98901.67
2019-05-05T21:07:53.044Z,98893.55
2019-05-05T21:10:23.991Z,98899.27
2019-05-05T21:12:54.388Z,98898.70
2019-05-05T21:15:30.334Z,98897.63
2019-05-05T21:17:59.056Z,98895.73
2019-05-05T21:20:27.784Z,98897.89
2019-05-05T21:23:18.665Z,98901.42
2019-05-05T21:26:00.479Z,98901.71
2019-05-05T21:28:29.229Z,98899.81
2019-05-05T21:30:57.914Z,98902.27
2019-05-05T21:33:26.610Z,98907.40
2019-05-05T21:35:55.353Z,98903.08
2019-05-05T21:38:24.381Z,98907.70
2019-05-05T21:40:53.370Z,98905.81
2019-05-05T21:43:22.066Z,98909.58
2019-05-05T21:45:50.785Z,98910.95
2019-05-05T21:48:19.721Z,98905.50
2019-05-05T21:50:57.014Z,98909.58
2019-05-05T21:53:53.950Z,98908.50
2019-05-05T21:56:45.004Z,98909.34
2019-05-05T21:59:14.223Z,98916.69
2019-05-05T22:01:49.211Z,98914.22
2019-05-05T22:04:15.099Z,98912.31
2019-05-05T22:06:44.117Z,98915.58
2019-05-05T22:09:14.669Z,98914.78
2019-05-05T22:11:43.596Z,98909.05
2019-05-05T22:14:13.988Z,98907.19
2019-05-05T22:16:44.581Z,98913.69
2019-05-05T22:19:14.599Z,98912.62
2019-05-05T22:21:51.334Z,98909.89
2019-05-05T22:24:20.814Z,98903.11
2019-05-05T22:26:49.663Z,98903.89
2019-05-05T22:29:18.352Z,98903.13
2019-05-05T22:31:47.239Z,98909.64
2019-05-05T22:34:16.001Z,98907.21
2019-05-05T22:36:45.037Z,98909.12
2019-05-05T22:39:16.520Z,98904.75
2019-05-05T22:41:44.676Z,98908.28
2019-05-05T22:44:14.062Z,98909.64
2019-05-05T22:46:43.267Z,98908.30
2019-05-05T22:49:11.969Z,98763.61
2019-05-05T22:51:40.651Z,98907.20
2019-05-05T22:54:09.760Z,98908.30
2019-05-05T22:56:38.476Z,98906.65
2019-05-05T22:59:07.507Z,98904.49
2019-05-05T23:01:36.360Z,98901.78
2019-05-05T23:04:24.011Z,98902.04
2019-05-05T23:06:56.557Z,98905.05
2019-05-05T23:09:25.307Z,98905.05
2019-05-05T23:11:54.584Z,98901.77
2019-05-05T23:14:29.184Z,98900.41
2019-05-05T23:17:21.673Z,98897.69
2019-05-05T23:19:56.982Z,98900.70
2019-05-05T23:22:35.316Z,98899.06
2019-05-05T23:25:10.771Z,98896.09
2019-05-05T23:27:49.568Z,98894.99
2019-05-05T23:30:41.858Z,98900.95
2019-05-05T23:33:10.001Z,98897.45
2019-05-05T23:35:38.759Z,98901.78
2019-05-05T23:38:07.735Z,98890.66
2019-05-05T23:40:36.934Z,98890.09
2019-05-05T23:43:05.887Z,98884.95
2019-05-05T23:45:34.701Z,98889.30
2019-05-05T23:48:03.803Z,98893.08
2019-05-05T23:50:33.805Z,98881.68
2019-05-05T23:53:02.810Z,98891.17
2019-05-05T23:55:31.722Z,98810.22
2019-05-05T23:58:00.392Z,98887.63
